Readington, NJ

10:04 AM EST on January 24, 2017 (GMT -0500)
Round Valley South | | Change Station
Active Advisory: Small Craft Advisory Active Notice: Public Information Statement

Elev 325 ft 40.60 °N, 74.84 °W | Updated 0 second ago

Overcast
Overcast
34.8 °F
Feels Like 34.8 °F
N
0.0
Wind Variable Wind from NW
Gusts 0.0 mph

Today
High -- | Low -- °F
--% Chance of Precip.
Yesterday
High -- | Low -- °F
Precip. -- in
Pressure 29.40 in
Visibility 10.0 miles
Clouds Mostly Cloudy 1900 ft
Overcast 2300 ft
Dew Point 33.0 °F
Humidity 93%
Rainfall 0.27 in
Snow Depth Not available.
7:15 AM 5:07 PM
Waning Crescent, 11% visible
METAR KSMQ 241453Z AUTO 36009KT 10SM BKN019 OVC023 03/00 A2939 RMK AO2 SLP954 T00280000 53007
Pressure 29.40 in
Visibility 10.0 miles
Clouds Mostly Cloudy 1900 ft
Overcast 2300 ft
Dew Point 33.0 °F
Humidity 93%
Rainfall 0.27 in
Snow Depth Not available.
7:15 AM 5:07 PM
Waning Crescent, 11% visible
METAR KSMQ 241453Z AUTO 36009KT 10SM BKN019 OVC023 03/00 A2939 RMK AO2 SLP954 T00280000 53007

Get Your Daily Forecast Email!

Thanks for signing up!

Be on the lookout for a verification email in your inbox.

You'll start receiving the daily forecast at 8 AM.

×

10-Day Weather Forecast

Almanac

Astronomy

Jan. 24, 2017 Rise Set
Actual Time
Civil Twilight
Nautical Twilight
Astronomical Twilight
Moon
Length of Visible Light
Length of Day
Tomorrow will be .
, % of the Moon is Illuminated

Today's Extremes

State Highs State Lows

Community

WunderPhotos

Upload Photos

1,962,540 photos uploaded!

WunderBlog® & News

Nearby

Air Quality

  Air Quality AQ Index Pollutant
Not available.

Snow Depth

Station Depth Elevation

Earthquake Activity

City Distance Mag. Time & Date
Minimum magnitude displayed is 2.5.

Coastal Water Temperatures

Place Temperature

Stations

Nearby Weather Stations

Station Location Temp. Windchill Dew Point Humidity Wind Precip. Elev Updated Type
                   

Watches & Warnings

Small Craft Advisory
Issued: 5:46 AM EST Jan. 24, 2017 – National Weather Service

... Small Craft Advisory in effect until 6 am EST Wednesday...
... Gale Warning is cancelled...

The National Weather Service in Upton has issued a Small Craft
Advisory... which is in effect until 6 am EST Wednesday. The Gale
Warning has been cancelled.

* Winds and seas... north winds 20 to 30 kt. Occasional gusts up to
35 kt early this morning. Seas 4 to 8 feet across the Long
Island Sound.

Precautionary/preparedness actions...

A Small Craft Advisory means that sustained wind speeds or
frequent gusts of 25 to 33 kt and/or seas of 5 ft or higher are
expected or occurring... and hazardous to small craft.
Inexperienced mariners... especially those operating smaller
vessels... should avoid navigating in these conditions.